Phoenix — LZEL — position and weather

sailwx.info

Track history (hours):
 
Tides and Currents Weather Stations Pressure Air Temp Water Temp Dewpoint Dewpoint Depression Visibility Wind Speed Wind Dir Waves Ship Positions

Phoenix

Last reported at 2017-Dec-11 10:51 UTC. Time now 2017-Dec-14 17:14 UTC.
Position N 40°59' E 028°60'.

Length 147 m; draft 6.7 m.

Type: Cargo ship. MMSI: 207137000.

Date/timePositionNaut miles runAvg speedWind from/ knotsBaromVisibWave heightAir tempDewpointWater temp
2017-Dec-11 10:51N 40°59' E 028°60'2 5.2
2017-Dec-11 10:26N 40°56' E 028°60'4 6.4
2017-Dec-11 09:46N 40°52' E 029°01'3 8.4
2017-Dec-11 09:23N 40°49' E 029°02'4 8.2
2017-Dec-11 08:55N 40°45' E 029°03'1 1.6
2017-Dec-11 08:27N 40°45' E 029°02'4 1.1
2017-Dec-11 04:33N 40°47' E 028°57'1 6.6
2017-Dec-11 04:27N 40°47' E 028°58'4 8.2
2017-Dec-11 04:00N 40°49' E 029°02'2 3.1
2017-Dec-11 03:22N 40°51' E 029°02'1 0.9
2017-Dec-11 02:46N 40°51' E 029°01'0 0.8
2017-Dec-11 02:28N 40°51' E 029°01'0 0.6
2017-Dec-11 01:58N 40°51' E 029°02'1 0.5
2017-Dec-10 23:16N 40°49' E 029°01'0 0.4
2017-Dec-10 22:58N 40°49' E 029°01'0 0.5
2017-Dec-10 22:16N 40°49' E 029°01'0 0.8
2017-Dec-10 21:52N 40°49' E 029°00'0 0.8
2017-Dec-10 21:28N 40°49' E 028°60'2 3.5
2017-Dec-10 21:00N 40°50' E 028°58'5 8.7
2017-Dec-10 20:29N 40°54' E 028°55'2 0.1
2017-Dec-10 02:45N 40°55' E 028°57'2 8.5
2017-Dec-10 02:30N 40°54' E 028°55'5 9.2
2017-Dec-10 01:56N 40°51' E 028°49'226 8.1
2017-Dec-08 22:01N 37°54' E 025°48'0 9.9
2017-Dec-08 22:00N 37°54' E 025°48'5 9.9
2017-Dec-08 21:28N 37°49' E 025°49'6 9.7
2017-Dec-08 20:48N 37°42' E 025°49'3 9.7
2017-Dec-08 20:29N 37°39' E 025°50'5 9.7
2017-Dec-08 20:00N 37°35' E 025°51'5 9.7
2017-Dec-08 19:30N 37°30' E 025°53'5 9.9
2017-Dec-08 19:00N 37°26' E 025°56'5 9.9
2017-Dec-08 18:30N 37°22' E 025°59'5 9.9
2017-Dec-08 18:00N 37°17' E 026°02'5 9.7
2017-Dec-08 17:30N 37°13' E 026°04'5 9.9
2017-Dec-08 17:00N 37°08' E 026°07'5 9.9
2017-Dec-08 16:30N 37°04' E 026°09'5 9.9
2017-Dec-08 16:00N 36°59' E 026°12'5 9.6
2017-Dec-08 15:30N 36°56' E 026°17'5 9.3
2017-Dec-08 15:00N 36°53' E 026°21'4 9.0
2017-Dec-08 14:30N 36°50' E 026°25'5 9.4
2017-Dec-08 14:00N 36°48' E 026°30'5 9.5
2017-Dec-08 13:30N 36°45' E 026°35'5 9.6
2017-Dec-08 13:00N 36°43' E 026°41'6 9.7
2017-Dec-08 12:25N 36°40' E 026°46'  
Track history (hours):
 
Tides and Currents Weather Stations Pressure Air Temp Water Temp Dewpoint Dewpoint Depression Visibility Wind Speed Wind Dir Waves Ship Positions

Phoenix

Last reported at 2017-Dec-11 10:51 UTC. Time now 2017-Dec-14 17:14 UTC.
Position N 40°59' E 028°60'.

Length 147 m; draft 6.7 m.

Type: Cargo ship. MMSI: 207137000.

Date/timePositionNaut miles runAvg speedWind from/ knotsBaromVisibWave heightAir tempDewpointWater temp
2017-Dec-11 10:51N 40°59' E 028°60'2 5.2
2017-Dec-11 10:26N 40°56' E 028°60'4 6.4
2017-Dec-11 09:46N 40°52' E 029°01'3 8.4
2017-Dec-11 09:23N 40°49' E 029°02'4 8.2
2017-Dec-11 08:55N 40°45' E 029°03'1 1.6
2017-Dec-11 08:27N 40°45' E 029°02'4 1.1
2017-Dec-11 04:33N 40°47' E 028°57'1 6.6
2017-Dec-11 04:27N 40°47' E 028°58'4 8.2
2017-Dec-11 04:00N 40°49' E 029°02'2 3.1
2017-Dec-11 03:22N 40°51' E 029°02'1 0.9
2017-Dec-11 02:46N 40°51' E 029°01'0 0.8
2017-Dec-11 02:28N 40°51' E 029°01'0 0.6
2017-Dec-11 01:58N 40°51' E 029°02'1 0.5
2017-Dec-10 23:16N 40°49' E 029°01'0 0.4
2017-Dec-10 22:58N 40°49' E 029°01'0 0.5
2017-Dec-10 22:16N 40°49' E 029°01'0 0.8
2017-Dec-10 21:52N 40°49' E 029°00'0 0.8
2017-Dec-10 21:28N 40°49' E 028°60'2 3.5
2017-Dec-10 21:00N 40°50' E 028°58'5 8.7
2017-Dec-10 20:29N 40°54' E 028°55'2 0.1
2017-Dec-10 02:45N 40°55' E 028°57'2 8.5
2017-Dec-10 02:30N 40°54' E 028°55'5 9.2
2017-Dec-10 01:56N 40°51' E 028°49'226 8.1
2017-Dec-08 22:01N 37°54' E 025°48'0 9.9
2017-Dec-08 22:00N 37°54' E 025°48'5 9.9
2017-Dec-08 21:28N 37°49' E 025°49'6 9.7
2017-Dec-08 20:48N 37°42' E 025°49'3 9.7
2017-Dec-08 20:29N 37°39' E 025°50'5 9.7
2017-Dec-08 20:00N 37°35' E 025°51'5 9.7
2017-Dec-08 19:30N 37°30' E 025°53'5 9.9
2017-Dec-08 19:00N 37°26' E 025°56'5 9.9
2017-Dec-08 18:30N 37°22' E 025°59'5 9.9
2017-Dec-08 18:00N 37°17' E 026°02'5 9.7
2017-Dec-08 17:30N 37°13' E 026°04'5 9.9
2017-Dec-08 17:00N 37°08' E 026°07'5 9.9
2017-Dec-08 16:30N 37°04' E 026°09'5 9.9
2017-Dec-08 16:00N 36°59' E 026°12'5 9.6
2017-Dec-08 15:30N 36°56' E 026°17'5 9.3
2017-Dec-08 15:00N 36°53' E 026°21'4 9.0
2017-Dec-08 14:30N 36°50' E 026°25'5 9.4
2017-Dec-08 14:00N 36°48' E 026°30'5 9.5
2017-Dec-08 13:30N 36°45' E 026°35'5 9.6
2017-Dec-08 13:00N 36°43' E 026°41'6 9.7
2017-Dec-08 12:25N 36°40' E 026°46'  

Dump ship's entire track history